Time;durP1;ratioP1;P1;durP2;ratioP2;P2;SDS_P1;SDS_P2;PMS_P1;PMS_P2;Temp;Humidity;BMP_temperature;BMP_pressure;BME280_temperature;BME280_humidity;BME280_pressure;Samples;Min_cycle;Max_cycle;Signal;HPM_P1;HPM_P2
2022/12/20 00:02:19;;;;;;;15.80;7.60;;;;;;;-0.71;90.47;99633.17;213771;1312;22841;-73
2022/12/20 00:07:21;;;;;;;15.80;6.70;;;;;;;-0.68;90.77;99624.10;213839;1312;23735;-72
2022/12/20 00:12:28;;;;;;;12.30;5.60;;;;;;;-0.66;90.42;99615.73;213928;1312;22492;-74
2022/12/20 00:17:30;;;;;;;7.90;4.00;;;;;;;-0.64;90.29;99608.48;213715;1312;22508;-72
2022/12/20 00:22:32;;;;;;;15.30;5.70;;;;;;;-0.62;90.92;99620.00;213667;1302;22483;-73
2022/12/20 00:27:34;;;;;;;16.00;6.80;;;;;;;-0.61;90.76;99612.52;213678;1312;24282;-72
2022/12/20 00:32:37;;;;;;;12.90;6.40;;;;;;;-0.61;91.08;99603.28;213652;1308;22536;-74
2022/12/20 00:37:39;;;;;;;13.90;5.90;;;;;;;-0.60;91.62;99596.23;213638;1312;22484;-73
2022/12/20 00:42:41;;;;;;;13.50;6.50;;;;;;;-0.61;91.87;99585.55;213752;1312;22589;-73
2022/12/20 00:47:42;;;;;;;16.30;6.50;;;;;;;-0.60;92.00;99575.08;213680;1312;24318;-73
2022/12/20 00:52:44;;;;;;;14.40;6.30;;;;;;;-0.58;92.01;99610.27;213805;1306;24371;-74
2022/12/20 00:57:46;;;;;;;16.80;6.40;;;;;;;-0.57;91.48;99607.88;213584;1307;22551;-73
2022/12/20 01:02:48;;;;;;;14.20;6.40;;;;;;;-0.59;91.64;99604.27;213674;1312;24086;-73
2022/12/20 01:07:50;;;;;;;14.80;6.90;;;;;;;-0.60;91.58;99600.20;213694;1312;23435;-74
2022/12/20 01:12:53;;;;;;;17.40;6.90;;;;;;;-0.60;91.35;99601.95;213842;1312;23118;-74
2022/12/20 01:17:54;;;;;;;16.90;7.00;;;;;;;-0.57;91.39;99590.38;213638;1310;22547;-73
2022/12/20 01:22:56;;;;;;;14.10;6.60;;;;;;;-0.57;91.35;99588.05;213646;1312;24346;-73
2022/12/20 01:27:58;;;;;;;15.70;7.00;;;;;;;-0.56;91.33;99588.98;213543;1312;22493;-73
2022/12/20 01:33:00;;;;;;;15.10;7.10;;;;;;;-0.55;91.23;99581.96;213614;1312;24286;-73
2022/12/20 01:38:02;;;;;;;16.00;7.30;;;;;;;-0.53;91.38;99559.27;213599;1299;22771;-73
2022/12/20 01:43:04;;;;;;;13.40;5.80;;;;;;;-0.51;91.41;99554.12;213670;1309;23775;-73
2022/12/20 01:48:06;;;;;;;12.90;5.90;;;;;;;-0.48;91.47;99540.98;213557;1312;22554;-74
2022/12/20 01:53:09;;;;;;;13.90;6.70;;;;;;;-0.46;91.50;99528.59;213852;1312;22564;-74
2022/12/20 01:58:13;;;;;;;13.90;7.00;;;;;;;-0.43;91.13;99528.77;213770;1312;22645;-74
2022/12/20 02:03:15;;;;;;;10.60;5.10;;;;;;;-0.40;91.09;99550.97;213928;1312;22544;-74
2022/12/20 02:08:19;;;;;;;13.40;6.30;;;;;;;-0.38;90.77;99550.61;213845;1312;22525;-73
2022/12/20 02:13:29;;;;;;;12.40;6.00;;;;;;;-0.40;90.48;99545.59;213928;1312;23969;-72
2022/12/20 02:18:42;;;;;;;14.20;6.40;;;;;;;-0.46;90.45;99556.05;213760;1312;25275;-74
2022/12/20 02:24:02;;;;;;;8.00;4.30;;;;;;;-0.54;90.41;99532.56;213692;1312;22489;-73
2022/12/20 02:29:26;;;;;;;11.50;5.60;;;;;;;-0.61;90.41;99524.50;213817;1312;25340;-73
2022/12/20 02:34:32;;;;;;;12.40;5.10;;;;;;;-0.65;90.60;99534.35;213835;1312;25591;-74
2022/12/20 02:39:38;;;;;;;10.20;4.50;;;;;;;-0.68;90.40;99533.29;213687;1310;24296;-73
2022/12/20 02:50:11;;;;;;;12.10;6.30;;;;;;;-0.72;90.55;99544.52;213507;1311;25542;-73
2022/12/20 02:55:15;;;;;;;13.50;5.40;;;;;;;-0.74;90.61;99532.36;213529;1303;22521;-73
2022/12/20 03:00:20;;;;;;;12.60;5.90;;;;;;;-0.76;90.70;99541.55;213526;1312;23644;-74
2022/12/20 03:05:24;;;;;;;12.50;6.10;;;;;;;-0.79;90.38;99524.50;213803;1312;24327;-72
2022/12/20 03:10:27;;;;;;;14.50;6.80;;;;;;;-0.81;90.43;99523.23;213771;1312;24161;-73
2022/12/20 03:15:29;;;;;;;13.80;6.40;;;;;;;-0.85;90.34;99514.21;213577;1312;25515;-72
2022/12/20 03:20:32;;;;;;;12.20;5.20;;;;;;;-0.87;90.78;99508.67;213605;1312;23742;-73
2022/12/20 03:25:34;;;;;;;13.80;5.70;;;;;;;-0.88;90.63;99509.57;213482;1312;22479;-73
2022/12/20 03:30:36;;;;;;;13.70;6.10;;;;;;;-0.90;90.73;99507.36;213749;1312;22456;-74
2022/12/20 03:35:38;;;;;;;15.50;6.50;;;;;;;-0.94;90.86;99509.41;213679;1300;25316;-73
2022/12/20 03:40:41;;;;;;;15.70;6.70;;;;;;;-0.97;90.84;99500.02;213647;1312;23051;-72
2022/12/20 03:45:45;;;;;;;15.30;6.90;;;;;;;-0.99;90.97;99505.77;213752;1307;22666;-73
2022/12/20 03:50:48;;;;;;;14.20;6.30;;;;;;;-0.98;91.21;99513.84;213703;1311;24311;-72
2022/12/20 03:55:49;;;;;;;14.50;6.00;;;;;;;-0.96;91.00;99504.74;213637;1312;24865;-73
2022/12/20 04:00:52;;;;;;;16.90;6.40;;;;;;;-0.95;91.10;99506.16;213816;1312;25499;-74
2022/12/20 04:06:15;;;;;;;15.90;7.30;;;;;;;-0.91;91.22;99502.19;213558;1312;23576;-73
2022/12/20 04:11:17;;;;;;;17.40;7.30;;;;;;;-0.88;91.51;99506.52;213668;1312;22623;-73
2022/12/20 04:16:28;;;;;;;15.40;7.30;;;;;;;-0.85;91.22;99510.42;213766;1312;22494;-72
2022/12/20 04:21:33;;;;;;;18.90;8.10;;;;;;;-0.81;91.58;99517.12;213735;1312;26356;-74
2022/12/20 04:26:35;;;;;;;18.50;7.60;;;;;;;-0.79;91.51;99517.14;213919;1312;25383;-73
2022/12/20 04:31:38;;;;;;;17.10;7.10;;;;;;;-0.75;91.36;99524.06;213652;1312;22542;-74
2022/12/20 04:36:40;;;;;;;11.90;5.80;;;;;;;-0.73;91.57;99512.22;213848;1312;22517;-74
2022/12/20 04:41:47;;;;;;;18.40;7.60;;;;;;;-0.73;91.57;99505.13;213708;1312;25353;-74
2022/12/20 04:46:49;;;;;;;14.50;7.40;;;;;;;-0.71;91.41;99499.83;213817;1312;25338;-74
2022/12/20 04:51:52;;;;;;;15.40;5.50;;;;;;;-0.69;91.42;99501.20;213697;1312;23364;-73
2022/12/20 04:56:54;;;;;;;14.00;6.90;;;;;;;-0.67;91.39;99492.33;213847;1312;25398;-73
2022/12/20 05:01:57;;;;;;;16.70;6.10;;;;;;;-0.63;91.37;99481.36;213723;1312;25913;-73
2022/12/20 05:07:19;;;;;;;11.80;5.70;;;;;;;-0.64;91.27;99468.25;213637;1312;25273;-73
2022/12/20 05:12:25;;;;;;;14.80;7.10;;;;;;;-0.68;91.55;99458.79;213610;1312;22609;-74
2022/12/20 05:17:30;;;;;;;12.50;5.90;;;;;;;-0.72;91.75;99459.45;213719;1312;22958;-73
2022/12/20 05:27:54;;;;;;;18.90;9.10;;;;;;;-0.70;91.83;99463.96;213605;1312;22476;-73
2022/12/20 05:32:58;;;;;;;17.80;7.80;;;;;;;-0.74;91.79;99464.33;213608;1311;23135;-73
2022/12/20 05:38:01;;;;;;;15.70;7.70;;;;;;;-0.74;92.01;99463.35;213808;1312;25370;-73
2022/12/20 05:43:05;;;;;;;19.50;8.40;;;;;;;-0.72;91.95;99458.42;213657;1312;25316;-73
2022/12/20 05:48:16;;;;;;;11.20;9.60;;;;;;;-0.73;91.87;99453.98;213736;1312;22536;-72
2022/12/20 05:53:18;;;;;;;20.10;9.30;;;;;;;-0.75;92.04;99443.84;213630;1311;25258;-74
2022/12/20 05:58:23;;;;;;;18.10;7.80;;;;;;;-0.76;92.17;99444.48;213727;1312;26257;-74
2022/12/20 06:03:31;;;;;;;18.80;7.10;;;;;;;-0.77;92.15;99445.37;213855;1312;25344;-73
2022/12/20 06:08:36;;;;;;;20.90;8.20;;;;;;;-0.75;92.07;99443.89;213788;1312;22591;-72
2022/12/20 06:13:42;;;;;;;23.20;8.60;;;;;;;-0.74;92.15;99454.48;213608;1312;22487;-73
2022/12/20 06:18:44;;;;;;;15.00;6.70;;;;;;;-0.75;92.17;99455.81;213804;1312;22521;-72
2022/12/20 06:23:47;;;;;;;13.30;5.80;;;;;;;-0.77;92.15;99445.48;213845;1312;25025;-73
2022/12/20 06:28:55;;;;;;;10.70;6.10;;;;;;;-0.78;92.25;99448.98;213706;1312;24583;-73
2022/12/20 06:34:24;;;;;;;19.80;7.30;;;;;;;-0.78;92.36;99443.75;213506;1312;25400;-73
2022/12/20 06:39:26;;;;;;;23.20;10.30;;;;;;;-0.78;92.35;99439.95;213724;1312;23954;-72
2022/12/20 06:44:47;;;;;;;19.20;8.20;;;;;;;-0.78;92.34;99458.96;213792;1280;24161;-72
2022/12/20 06:49:49;;;;;;;17.20;7.30;;;;;;;-0.77;92.51;99459.25;213967;1288;24334;-73
2022/12/20 06:54:55;;;;;;;21.90;8.90;;;;;;;-0.75;92.37;99462.05;214417;1282;25355;-72
2022/12/20 06:59:58;;;;;;;18.40;8.80;;;;;;;-0.71;92.42;99463.73;214256;1288;22577;-72
2022/12/20 07:05:00;;;;;;;19.30;8.70;;;;;;;-0.63;92.32;99469.25;214822;1281;22511;-71
2022/12/20 07:10:02;;;;;;;18.90;7.90;;;;;;;-0.56;92.26;99466.58;213991;1291;139929;-73
2022/12/20 07:15:05;;;;;;;20.50;9.40;;;;;;;-0.46;91.63;99466.15;214233;1284;138977;-72
2022/12/20 07:20:07;;;;;;;20.70;8.80;;;;;;;-0.38;91.68;99461.91;214171;1288;139346;-72
2022/12/20 07:25:15;;;;;;;17.70;7.90;;;;;;;-0.32;91.51;99459.81;214174;1288;138926;-72
2022/12/20 07:30:18;;;;;;;15.40;6.70;;;;;;;-0.25;91.49;99460.48;214376;1281;25064;-74
2022/12/20 07:35:20;;;;;;;20.00;8.30;;;;;;;-0.18;91.40;99452.10;214357;1284;138592;-72
2022/12/20 07:40:21;;;;;;;20.60;8.50;;;;;;;-0.11;91.29;99451.98;214329;1280;138959;-73
2022/12/20 07:45:23;;;;;;;20.00;8.90;;;;;;;-0.03;91.16;99464.91;214431;1281;139317;-71
2022/12/20 07:50:27;;;;;;;20.90;9.20;;;;;;;0.05;90.28;99456.82;214557;1285;139380;-73
2022/12/20 07:55:30;;;;;;;16.80;7.80;;;;;;;0.13;90.44;99452.27;214504;1291;138867;-72
2022/12/20 08:00:32;;;;;;;17.20;8.10;;;;;;;0.19;89.96;99456.93;214343;1288;138747;-74
2022/12/20 08:05:39;;;;;;;24.10;9.60;;;;;;;0.25;89.57;99450.27;214365;1284;26207;-73
2022/12/20 08:10:42;;;;;;;17.10;7.50;;;;;;;0.31;89.23;99453.69;214475;1281;138354;-71
2022/12/20 08:15:44;;;;;;;18.80;7.30;;;;;;;0.40;89.59;99454.77;214103;1288;138683;-71
2022/12/20 08:20:46;;;;;;;18.50;8.20;;;;;;;0.49;89.12;99445.83;214090;1288;138726;-72
2022/12/20 08:25:49;;;;;;;21.30;9.50;;;;;;;0.62;89.12;99444.95;214256;1296;138727;-72
2022/12/20 08:30:50;;;;;;;21.80;9.50;;;;;;;0.79;88.47;99434.28;214221;1288;138747;-72
2022/12/20 08:35:58;;;;;;;16.10;8.40;;;;;;;0.96;87.86;99435.55;214121;1283;22545;-74
2022/12/20 08:41:06;;;;;;;21.60;9.20;;;;;;;1.08;86.98;99435.11;214390;1288;138321;-72
2022/12/20 08:46:10;;;;;;;14.20;6.90;;;;;;;1.13;86.37;99448.76;214387;1288;138663;-73
2022/12/20 08:51:12;;;;;;;14.90;7.40;;;;;;;1.20;86.31;99442.88;214338;1285;138806;-73
2022/12/20 08:56:16;;;;;;;14.40;6.70;;;;;;;1.30;86.22;99436.02;214055;1291;138766;-74
2022/12/20 09:01:20;;;;;;;15.10;6.50;;;;;;;1.38;85.42;99436.66;214104;1288;138734;-72
2022/12/20 09:06:22;;;;;;;14.00;6.40;;;;;;;1.45;84.54;99437.75;214206;1284;139121;-73
2022/12/20 09:11:25;;;;;;;12.80;6.50;;;;;;;1.50;84.55;99432.81;214388;1287;23287;-72
2022/12/20 09:16:31;;;;;;;16.20;7.50;;;;;;;1.56;84.48;99432.09;214430;1287;138536;-73
2022/12/20 09:21:34;;;;;;;17.00;8.00;;;;;;;1.58;83.93;99433.55;214742;1288;138725;-73
2022/12/20 09:26:36;;;;;;;18.00;7.80;;;;;;;1.55;83.04;99429.89;214461;1284;138710;-71
2022/12/20 09:31:37;;;;;;;19.50;8.30;;;;;;;1.57;83.69;99424.08;214295;1287;138731;-72
2022/12/20 09:36:39;;;;;;;18.00;7.20;;;;;;;1.71;83.53;99406.52;214097;1288;138726;-71
2022/12/20 09:41:43;;;;;;;18.10;8.20;;;;;;;1.83;83.60;99396.13;214058;1288;25278;-73
2022/12/20 09:46:53;;;;;;;18.10;8.30;;;;;;;1.95;83.09;99382.75;213983;1312;138621;-72
2022/12/20 09:52:20;;;;;;;16.80;7.90;;;;;;;2.08;83.19;99388.28;213990;1312;138678;-72
2022/12/20 09:57:33;;;;;;;20.70;9.10;;;;;;;2.22;82.70;99406.05;214156;1304;138709;-71
2022/12/20 10:02:35;;;;;;;18.60;8.30;;;;;;;2.23;81.80;99410.35;213952;1287;138785;-71
2022/12/20 10:08:14;;;;;;;17.80;8.40;;;;;;;2.14;81.39;99411.98;214315;1288;138833;-71
2022/12/20 10:13:47;;;;;;;19.70;9.50;;;;;;;2.07;80.85;99410.70;214303;1290;138720;-72
2022/12/20 10:19:12;;;;;;;18.40;8.70;;;;;;;2.04;81.22;99399.95;213949;1291;138968;-72
2022/12/20 10:24:20;;;;;;;17.30;9.00;;;;;;;2.03;81.61;99376.81;214206;1288;22543;-73
2022/12/20 10:29:22;;;;;;;18.00;8.50;;;;;;;2.03;81.84;99361.17;214536;1290;22470;-73
2022/12/20 10:34:24;;;;;;;16.30;7.60;;;;;;;2.07;81.59;99352.56;214166;1296;138828;-72
2022/12/20 10:39:42;;;;;;;15.10;8.30;;;;;;;2.07;81.65;99347.80;214302;1281;139158;-74
2022/12/20 10:44:44;;;;;;;17.00;8.20;;;;;;;2.13;82.00;99344.16;213867;1287;138772;-74
2022/12/20 10:49:46;;;;;;;19.00;8.30;;;;;;;2.21;81.86;99344.73;214226;1283;138712;-74
2022/12/20 10:54:48;;;;;;;20.50;9.60;;;;;;;2.27;81.61;99330.49;213903;1288;138673;-74
2022/12/20 11:00:04;;;;;;;18.30;8.20;;;;;;;2.31;80.89;99331.64;214379;1290;22520;-75
2022/12/20 11:05:13;;;;;;;16.20;8.40;;;;;;;2.39;81.18;99313.79;213958;1291;138372;-76
2022/12/20 11:10:27;;;;;;;18.10;8.50;;;;;;;2.60;80.61;99308.86;214400;1296;138975;-76
2022/12/20 11:15:32;;;;;;;13.80;7.70;;;;;;;2.77;80.89;99317.16;214293;1298;139076;-76
2022/12/20 11:20:57;;;;;;;12.60;6.70;;;;;;;2.73;80.53;99320.64;214136;1301;138570;-76
2022/12/20 11:26:27;;;;;;;18.00;8.90;;;;;;;2.62;80.68;99327.02;214393;1290;138848;-77
2022/12/20 11:31:59;;;;;;;15.10;7.50;;;;;;;2.54;80.38;99314.30;214198;1288;138867;-77
2022/12/20 11:37:13;;;;;;;17.00;6.40;;;;;;;2.39;79.79;99283.19;214195;1288;138374;-76
2022/12/20 11:42:30;;;;;;;18.10;9.50;;;;;;;2.31;79.96;99283.08;214530;1280;22469;-75
2022/12/20 11:48:00;;;;;;;22.80;10.20;;;;;;;2.31;80.28;99288.38;214713;1288;22581;-76
2022/12/20 11:53:19;;;;;;;19.10;9.20;;;;;;;2.31;80.24;99281.20;214421;1304;138776;-75
2022/12/20 11:58:40;;;;;;;18.10;8.70;;;;;;;2.31;80.51;99298.41;214332;1312;138262;-76
2022/12/20 12:04:17;;;;;;;15.30;8.50;;;;;;;2.33;79.98;99302.21;214111;1312;139033;-75
2022/12/20 12:09:29;;;;;;;17.10;7.80;;;;;;;2.37;80.41;99284.39;214285;1304;138550;-75
2022/12/20 12:14:51;;;;;;;17.60;8.40;;;;;;;2.32;79.76;99270.06;214130;1304;138678;-74
2022/12/20 12:20:00;;;;;;;16.20;8.60;;;;;;;2.22;80.72;99257.36;214263;1311;138582;-74
2022/12/20 12:25:10;;;;;;;20.00;8.80;;;;;;;2.24;80.53;99264.98;214121;1288;138598;-75
2022/12/20 12:30:15;;;;;;;18.70;9.20;;;;;;;2.23;80.89;99257.71;214161;1288;24278;-75
2022/12/20 12:35:51;;;;;;;16.60;9.10;;;;;;;2.31;81.50;99264.20;214576;1288;137906;-74
2022/12/20 12:41:02;;;;;;;20.60;9.40;;;;;;;2.25;81.04;99271.51;214319;1286;138391;-72
2022/12/20 12:46:12;;;;;;;19.10;9.30;;;;;;;2.18;81.04;99254.71;214643;1286;138660;-73
2022/12/20 12:51:22;;;;;;;18.70;8.20;;;;;;;2.14;81.36;99249.52;214223;1298;138360;-74
2022/12/20 12:56:24;;;;;;;15.40;7.40;;;;;;;2.11;81.60;99273.02;214093;1291;138996;-72
2022/12/20 13:02:14;;;;;;;18.50;8.90;;;;;;;1.96;81.00;99271.31;214132;1286;138886;-72
2022/12/20 13:07:27;;;;;;;18.20;8.10;;;;;;;1.75;81.70;99261.60;214140;1312;139161;-73
2022/12/20 13:12:35;;;;;;;18.40;8.70;;;;;;;1.61;82.47;99246.62;213837;1306;139106;-73
2022/12/20 13:17:44;;;;;;;19.60;9.20;;;;;;;1.57;82.72;99257.45;214051;1308;25308;-73
2022/12/20 13:23:04;;;;;;;17.90;7.80;;;;;;;1.58;83.16;99254.81;214218;1310;138048;-73
2022/12/20 13:28:18;;;;;;;17.20;8.50;;;;;;;1.51;82.92;99248.82;214229;1296;138150;-73
2022/12/20 13:33:40;;;;;;;16.60;8.60;;;;;;;1.45;83.03;99253.52;214342;1307;138584;-74
2022/12/20 13:38:43;;;;;;;18.40;8.80;;;;;;;1.38;83.38;99257.23;213982;1289;138584;-73
2022/12/20 13:43:48;;;;;;;30.50;14.20;;;;;;;1.33;83.51;99267.86;214212;1287;138911;-74
2022/12/20 13:48:59;;;;;;;23.00;10.60;;;;;;;1.28;83.81;99264.17;214187;1304;139508;-74
2022/12/20 13:54:04;;;;;;;18.40;8.70;;;;;;;1.26;83.95;99255.62;214214;1288;25470;-75
2022/12/20 13:59:29;;;;;;;20.70;9.50;;;;;;;1.24;84.37;99250.48;213955;1293;138271;-74
2022/12/20 14:04:41;;;;;;;18.10;8.60;;;;;;;1.24;84.52;99243.56;214001;1298;138507;-75
2022/12/20 14:09:46;;;;;;;20.90;9.60;;;;;;;1.21;84.32;99242.05;214092;1304;138198;-75
2022/12/20 14:14:53;;;;;;;20.00;9.70;;;;;;;1.15;84.55;99234.17;214031;1289;138896;-76
2022/12/20 14:20:16;;;;;;;22.20;10.70;;;;;;;1.11;84.75;99239.11;214324;1306;138851;-75
2022/12/20 14:25:26;;;;;;;22.20;10.30;;;;;;;1.09;85.02;99243.20;214299;1287;138646;-73
2022/12/20 14:30:31;;;;;;;20.20;9.80;;;;;;;1.06;84.90;99251.71;213980;1292;138615;-74
2022/12/20 14:35:33;;;;;;;20.00;9.50;;;;;;;1.00;85.39;99246.14;214137;1287;24248;-73
2022/12/20 14:40:41;;;;;;;20.20;8.70;;;;;;;0.95;85.24;99236.96;214225;1289;138422;-73
2022/12/20 14:45:43;;;;;;;20.80;9.70;;;;;;;0.86;85.43;99216.61;214318;1293;138928;-73
2022/12/20 14:50:52;;;;;;;21.90;8.90;;;;;;;0.77;85.90;99211.10;214179;1292;138864;-75
2022/12/20 14:55:55;;;;;;;19.40;9.20;;;;;;;0.69;86.30;99197.44;214100;1288;138426;-75
2022/12/20 15:01:21;;;;;;;23.90;9.60;;;;;;;0.64;86.46;99207.92;214147;1285;24540;-75
2022/12/20 15:06:33;;;;;;;22.20;10.70;;;;;;;0.58;86.81;99210.66;214212;1298;23536;-75
2022/12/20 15:11:36;;;;;;;19.20;8.90;;;;;;;0.53;87.05;99213.98;213545;1313;22586;-75
2022/12/20 15:16:46;;;;;;;20.90;9.30;;;;;;;0.48;87.07;99219.60;213815;1313;24010;-75
2022/12/20 15:21:49;;;;;;;20.10;8.90;;;;;;;0.42;87.29;99218.98;213477;1313;22477;-76
2022/12/20 15:26:51;;;;;;;24.80;10.30;;;;;;;0.34;87.58;99219.55;213667;1313;24753;-75
2022/12/20 15:32:20;;;;;;;21.50;10.00;;;;;;;0.26;87.63;99209.09;213519;1313;22523;-76
2022/12/20 15:37:21;;;;;;;19.70;9.60;;;;;;;0.16;88.01;99200.73;213885;1313;22474;-76
2022/12/20 15:42:23;;;;;;;22.40;9.60;;;;;;;0.10;88.00;99197.89;213618;1313;22474;-74
2022/12/20 15:47:25;;;;;;;21.40;9.30;;;;;;;0.03;88.25;99188.27;213675;1313;24129;-74
2022/12/20 15:52:27;;;;;;;22.10;9.90;;;;;;;-0.01;88.64;99194.52;213622;1313;22680;-75
2022/12/20 15:57:29;;;;;;;18.60;9.10;;;;;;;-0.04;88.66;99186.03;213590;1307;27772;-75
2022/12/20 16:02:31;;;;;;;22.30;10.10;;;;;;;-0.08;88.62;99182.61;213621;1313;26535;-74
2022/12/20 16:07:34;;;;;;;26.40;10.90;;;;;;;-0.09;88.86;99187.11;213620;1313;26242;-75
2022/12/20 16:12:36;;;;;;;24.50;9.10;;;;;;;-0.11;88.96;99176.02;213610;1312;22495;-74
2022/12/20 16:17:38;;;;;;;23.50;10.20;;;;;;;-0.14;89.10;99181.48;213643;1313;24317;-76
2022/12/20 16:22:39;;;;;;;17.90;9.40;;;;;;;-0.18;89.12;99171.58;213646;1313;23812;-75
2022/12/20 16:27:41;;;;;;;25.50;10.10;;;;;;;-0.22;89.13;99166.16;213792;1313;25436;-75
2022/12/20 16:32:43;;;;;;;22.10;10.10;;;;;;;-0.26;89.30;99166.25;213705;1313;22473;-75
2022/12/20 16:37:45;;;;;;;22.10;10.00;;;;;;;-0.30;89.58;99164.48;213696;1313;23211;-74
2022/12/20 16:42:46;;;;;;;22.30;9.70;;;;;;;-0.30;89.60;99162.18;213420;1312;25157;-74
2022/12/20 16:47:48;;;;;;;21.80;10.30;;;;;;;-0.31;89.95;99153.10;213376;1313;25377;-75
2022/12/20 16:52:51;;;;;;;22.70;10.60;;;;;;;-0.28;89.92;99153.27;213435;1313;22553;-75
2022/12/20 16:57:53;;;;;;;19.70;9.70;;;;;;;-0.23;90.24;99155.23;213462;1310;22495;-75
2022/12/20 17:02:55;;;;;;;21.20;9.60;;;;;;;-0.19;89.92;99154.32;213642;1313;25432;-75
2022/12/20 17:07:57;;;;;;;22.40;10.30;;;;;;;-0.16;90.06;99157.11;213769;1313;27430;-75
2022/12/20 17:13:00;;;;;;;24.00;10.70;;;;;;;-0.15;90.35;99160.63;213850;1312;22504;-74
2022/12/20 17:18:02;;;;;;;24.60;10.30;;;;;;;-0.13;90.06;99160.82;213762;1313;22960;-75
2022/12/20 17:23:07;;;;;;;26.70;11.60;;;;;;;-0.12;90.21;99164.55;213525;1313;22545;-74
2022/12/20 17:28:09;;;;;;;22.40;10.30;;;;;;;-0.12;90.13;99157.95;213711;1313;23185;-74
2022/12/20 17:33:14;;;;;;;22.10;10.20;;;;;;;-0.12;90.02;99135.86;213607;1313;24371;-75
2022/12/20 17:38:15;;;;;;;25.60;11.10;;;;;;;-0.14;89.96;99143.48;213390;1313;22585;-74
2022/12/20 17:43:17;;;;;;;26.60;10.50;;;;;;;-0.13;90.25;99145.14;213501;1313;22543;-75
2022/12/20 17:48:19;;;;;;;22.00;9.40;;;;;;;-0.14;89.99;99139.64;213598;1313;22553;-75
2022/12/20 17:53:21;;;;;;;22.80;9.60;;;;;;;-0.15;90.16;99136.40;213677;1313;22484;-75
2022/12/20 17:58:22;;;;;;;22.80;9.40;;;;;;;-0.16;89.89;99143.05;213758;1313;22512;-74
2022/12/20 18:03:24;;;;;;;24.60;10.40;;;;;;;-0.19;90.06;99136.83;213518;1313;24253;-75
2022/12/20 18:08:51;;;;;;;23.00;9.10;;;;;;;-0.24;90.12;99127.08;213551;1313;24834;-76
2022/12/20 18:13:56;;;;;;;25.00;10.80;;;;;;;-0.27;90.17;99113.72;213759;1313;24370;-75
2022/12/20 18:18:59;;;;;;;20.10;9.10;;;;;;;-0.31;90.13;99104.27;213487;1309;24283;-75
2022/12/20 18:24:01;;;;;;;22.40;10.80;;;;;;;-0.31;90.43;99106.98;213711;1313;25338;-74
2022/12/20 18:29:03;;;;;;;27.80;11.80;;;;;;;-0.30;90.35;99112.33;213680;1313;24472;-74
2022/12/20 18:34:05;;;;;;;21.40;9.70;;;;;;;-0.29;90.40;99106.04;213157;1313;26555;-75
2022/12/20 18:39:11;;;;;;;24.50;11.50;;;;;;;-0.31;90.46;99110.50;213904;1312;24082;-75
2022/12/20 18:44:13;;;;;;;20.90;9.60;;;;;;;-0.30;90.58;99122.64;213521;1313;24594;-74
2022/12/20 18:49:14;;;;;;;23.20;10.60;;;;;;;-0.28;90.40;99123.33;213629;1313;25285;-76
2022/12/20 18:54:16;;;;;;;20.80;8.80;;;;;;;-0.30;90.16;99113.69;213573;1313;22490;-75
2022/12/20 18:59:20;;;;;;;25.60;10.30;;;;;;;-0.30;90.28;99109.02;213726;1313;22536;-74
2022/12/20 19:04:21;;;;;;;23.80;10.60;;;;;;;-0.30;90.35;99111.27;213738;1313;24369;-74
2022/12/20 19:09:26;;;;;;;23.50;9.90;;;;;;;-0.32;89.95;99107.34;213399;1313;23577;-75
2022/12/20 19:14:27;;;;;;;25.50;10.50;;;;;;;-0.36;90.17;99096.95;213586;1313;23135;-78
2022/12/20 19:19:31;;;;;;;22.30;9.50;;;;;;;-0.39;90.02;99083.11;213620;1313;25372;-75
2022/12/20 19:24:33;;;;;;;20.30;9.50;;;;;;;-0.42;90.26;99075.58;213796;1313;22825;-73
2022/12/20 19:29:35;;;;;;;17.40;8.30;;;;;;;-0.40;90.18;99066.81;213641;1313;25352;-74
2022/12/20 19:34:37;;;;;;;18.20;8.70;;;;;;;-0.37;90.27;99064.64;213598;1313;22834;-75
2022/12/20 19:39:38;;;;;;;20.80;9.30;;;;;;;-0.33;90.18;99066.23;213483;1313;22482;-75
2022/12/20 19:44:40;;;;;;;19.90;9.40;;;;;;;-0.27;90.28;99069.93;213808;1313;22655;-74
2022/12/20 19:49:42;;;;;;;25.10;10.40;;;;;;;-0.22;90.03;99066.77;213673;1313;22480;-75
2022/12/20 19:54:43;;;;;;;24.50;10.10;;;;;;;-0.16;89.93;99075.30;213813;1313;24275;-74
2022/12/20 19:59:45;;;;;;;21.20;9.10;;;;;;;-0.13;89.88;99073.31;213325;1312;22549;-75
2022/12/20 20:04:56;;;;;;;21.40;9.10;;;;;;;-0.11;89.90;99071.76;213759;1313;22517;-74
2022/12/20 20:09:57;;;;;;;22.70;10.10;;;;;;;-0.06;89.73;99071.94;213602;1312;24308;-74
2022/12/20 20:14:59;;;;;;;25.20;11.10;;;;;;;-0.02;89.99;99067.85;213698;1313;22521;-74
2022/12/20 20:20:01;;;;;;;21.70;10.40;;;;;;;-0.02;89.67;99066.80;213690;1313;22631;-75
2022/12/20 20:25:04;;;;;;;20.20;10.20;;;;;;;-0.02;89.84;99054.84;213765;1305;22518;-75
2022/12/20 20:30:06;;;;;;;21.30;9.90;;;;;;;-0.02;89.57;99044.96;213384;1313;22585;-76
2022/12/20 20:35:09;;;;;;;20.60;8.50;;;;;;;-0.02;89.81;99035.28;213738;1313;22467;-75
2022/12/20 20:40:12;;;;;;;21.60;9.90;;;;;;;-0.02;89.73;99039.25;213625;1313;25402;-75
2022/12/20 20:45:15;;;;;;;19.90;9.50;;;;;;;-0.01;89.85;99036.80;213609;1313;22494;-76
2022/12/20 20:50:17;;;;;;;20.40;9.50;;;;;;;0.02;89.77;99033.41;213592;1313;25432;-76
2022/12/20 20:55:19;;;;;;;20.90;10.20;;;;;;;0.04;89.98;99030.62;213718;1313;24344;-75
2022/12/20 21:00:21;;;;;;;20.70;10.60;;;;;;;0.05;89.84;99025.39;213583;1313;25451;-75
2022/12/20 21:05:23;;;;;;;14.40;7.20;;;;;;;0.08;89.71;99015.33;213393;1310;22558;-75
2022/12/20 21:10:44;;;;;;;17.80;8.30;;;;;;;0.11;89.78;99010.59;213643;1313;25404;-76
2022/12/20 21:15:46;;;;;;;22.20;10.30;;;;;;;0.15;89.64;99003.58;213583;1313;22475;-75
2022/12/20 21:20:48;;;;;;;23.70;10.50;;;;;;;0.19;89.46;98994.89;213566;1310;22611;-75
2022/12/20 21:25:57;;;;;;;17.90;7.60;;;;;;;0.20;89.62;98984.50;213769;1313;25469;-75
2022/12/20 21:31:01;;;;;;;19.70;9.60;;;;;;;0.21;89.31;98977.89;213473;1312;23931;-75
2022/12/20 21:36:05;;;;;;;22.80;9.40;;;;;;;0.21;89.40;98980.44;213446;1313;26393;-75
2022/12/20 21:41:11;;;;;;;24.00;10.30;;;;;;;0.24;89.29;98986.61;213609;1313;22514;-74
2022/12/20 21:46:13;;;;;;;23.90;9.40;;;;;;;0.25;89.27;98978.46;213560;1312;22485;-75
2022/12/20 21:51:19;;;;;;;19.40;9.50;;;;;;;0.25;89.24;98961.95;213353;1313;22490;-75
2022/12/20 21:56:23;;;;;;;20.10;9.20;;;;;;;0.24;89.24;98953.43;213617;1313;22506;-75
2022/12/20 22:01:26;;;;;;;16.60;8.10;;;;;;;0.24;89.02;98949.31;213939;1313;24237;-76
2022/12/20 22:06:30;;;;;;;21.10;9.20;;;;;;;0.26;89.03;98946.64;213411;1313;23277;-75
2022/12/20 22:11:33;;;;;;;21.60;10.50;;;;;;;0.25;89.24;98938.17;213501;1313;24297;-75
2022/12/20 22:16:36;;;;;;;22.20;10.30;;;;;;;0.25;89.36;98951.10;213622;1313;22494;-75
2022/12/20 22:21:38;;;;;;;23.30;10.30;;;;;;;0.27;89.44;98952.58;213638;1313;22492;-75
2022/12/20 22:26:40;;;;;;;23.70;10.30;;;;;;;0.28;89.42;98952.30;213632;1314;25271;-75
2022/12/20 22:31:42;;;;;;;22.30;10.00;;;;;;;0.28;89.33;98944.67;213666;1313;22917;-75
2022/12/20 22:36:44;;;;;;;18.90;9.00;;;;;;;0.27;89.38;98927.24;213337;1313;22509;-74
2022/12/20 22:41:45;;;;;;;22.50;9.60;;;;;;;0.25;89.48;98920.10;213520;1313;149831;-74
2022/12/20 22:46:47;;;;;;;18.20;9.10;;;;;;;0.20;89.58;98912.72;213772;1313;24343;-75
2022/12/20 22:51:49;;;;;;;17.10;8.80;;;;;;;0.12;89.45;98899.57;213533;1313;22890;-75
2022/12/20 22:57:09;;;;;;;20.80;10.00;;;;;;;0.02;89.49;98870.89;213825;1313;24311;-75
2022/12/20 23:02:11;;;;;;;18.40;8.20;;;;;;;-0.05;89.70;98856.90;213677;1313;22514;-74
2022/12/20 23:07:13;;;;;;;21.90;8.60;;;;;;;-0.12;89.88;98859.14;213641;1304;22489;-75
2022/12/20 23:17:35;;;;;;;21.30;9.20;;;;;;;-0.22;89.83;98840.73;213834;1313;22575;-75
2022/12/20 23:22:37;;;;;;;21.70;9.80;;;;;;;-0.25;90.09;98831.48;213676;1313;22489;-74
2022/12/20 23:27:41;;;;;;;17.30;10.10;;;;;;;-0.25;90.22;98829.57;213727;1313;25388;-75
2022/12/20 23:32:43;;;;;;;22.40;9.80;;;;;;;-0.24;90.50;98827.65;213334;1314;25474;-74
2022/12/20 23:37:46;;;;;;;26.20;10.90;;;;;;;-0.23;90.60;98846.16;213562;1313;22532;-74
2022/12/20 23:42:47;;;;;;;24.40;10.70;;;;;;;-0.19;90.55;98848.51;213506;1313;22482;-74